Time;durP1;ratioP1;P1;durP2;ratioP2;P2;SDS_P1;SDS_P2;PMS_P1;PMS_P2;Temp;Humidity;BMP_temperature;BMP_pressure;BME280_temperature;BME280_humidity;BME280_pressure;Samples;Min_cycle;Max_cycle;Signal;HPM_P1;HPM_P2
2023/07/07 00:01:07;;;;;;;;;9.25;6.75;;;;;22.92;37.18;100889.31;5099427;27;45585;-79
2023/07/07 00:03:33;;;;;;;;;6.00;6.00;;;;;22.80;36.61;100876.97;5083238;27;45500;-83
2023/07/07 00:05:58;;;;;;;;;9.00;7.00;;;;;22.81;36.94;100891.38;5077692;27;45834;-80
2023/07/07 00:08:24;;;;;;;;;6.67;5.33;;;;;22.80;37.47;100895.09;5093433;27;45351;-79
2023/07/07 00:10:50;;;;;;;;;7.67;6.00;;;;;22.82;36.78;100903.94;5121340;27;45156;-81
2023/07/07 00:13:16;;;;;;;;;8.00;8.00;;;;;22.66;37.32;100885.69;5104753;27;46319;-86
2023/07/07 00:15:44;;;;;;;;;7.33;7.00;;;;;22.78;36.74;100900.66;5098105;27;45516;-80
2023/07/07 00:18:13;;;;;;;;;8.00;6.67;;;;;22.57;37.21;100873.06;5098233;27;45781;-84
2023/07/07 00:20:38;;;;;;;;;6.75;6.75;;;;;22.70;37.51;100891.63;5102480;27;45508;-84
2023/07/07 00:23:04;;;;;;;;;5.00;5.00;;;;;22.70;37.36;100906.03;5089221;27;48956;-81
2023/07/07 00:25:32;;;;;;;;;6.50;6.50;;;;;22.61;37.53;100898.84;5079491;27;45241;-85
2023/07/07 00:27:58;;;;;;;;;7.00;5.00;;;;;22.56;37.32;100887.63;5079017;27;45366;-82
2023/07/07 00:30:23;;;;;;;;;5.25;4.00;;;;;22.57;37.48;100898.31;5079925;27;45576;-79
2023/07/07 00:32:48;;;;;;;;;6.00;4.25;;;;;22.52;37.35;100891.63;5079434;27;46443;-80
2023/07/07 00:35:14;;;;;;;;;6.75;5.00;;;;;22.59;37.74;100920.69;5080415;27;45313;-80
2023/07/07 00:37:39;;;;;;;;;7.25;5.00;;;;;21.98;37.84;100818.44;5081643;27;45416;-81
2023/07/07 00:40:06;;;;;;;;;7.00;5.67;;;;;22.31;37.56;100871.13;5096781;27;45235;-80
2023/07/07 00:42:31;;;;;;;;;5.33;5.33;;;;;22.32;37.99;100874.69;5114323;27;46506;-80
2023/07/07 00:45:09;;;;;;;;;6.33;6.33;;;;;22.47;37.77;100902.94;5100900;27;45278;-82
2023/07/07 00:47:39;;;;;;;;;5.67;5.00;;;;;22.10;38.07;100848.06;5099078;27;45336;-81
2023/07/07 00:50:07;;;;;;;;;7.00;7.00;;;;;22.32;37.94;100886.38;5099543;27;45555;-80
2023/07/07 00:52:34;;;;;;;;;7.33;6.00;;;;;22.08;38.03;100850.91;5099265;27;45430;-81
2023/07/07 00:55:00;;;;;;;;;9.00;7.25;;;;;22.30;38.30;100895.69;5100979;27;45382;-80
2023/07/07 00:57:26;;;;;;;;;5.00;5.00;;;;;22.25;38.13;100889.84;5101830;27;45401;-81
2023/07/07 00:59:51;;;;;;;;;4.67;4.67;;;;;22.17;38.48;100877.09;5098432;27;45554;-85
2023/07/07 01:02:24;;;;;;;;;4.00;4.00;;;;;22.02;38.52;100856.94;5076669;27;47425;-81
2023/07/07 01:04:53;;;;;;;;;6.00;5.00;;;;;22.25;38.16;100890.69;5078188;27;45450;-82
2023/07/07 01:07:38;;;;;;;;;5.67;4.33;;;;;22.05;38.79;100862.91;5076799;27;45428;-85
2023/07/07 01:10:03;;;;;;;;;6.00;6.00;;;;;22.14;38.49;100872.00;5115322;27;45298;-80
2023/07/07 01:12:29;;;;;;;;;7.00;6.00;;;;;22.13;38.62;100872.97;5098512;27;45357;-82
2023/07/07 01:14:54;;;;;;;;;6.67;5.00;;;;;22.16;38.38;100879.97;5099414;27;45299;-79
2023/07/07 01:17:38;;;;;;;;;6.67;6.00;;;;;22.16;38.50;100879.97;5099667;27;45309;-79
2023/07/07 01:20:23;;;;;;;;;5.67;5.67;;;;;22.16;38.35;100882.66;5098906;27;45416;-80
2023/07/07 01:22:54;;;;;;;;;5.50;4.75;;;;;22.16;38.62;100879.97;5097512;27;46533;-83
2023/07/07 01:25:43;;;;;;;;;4.67;4.67;;;;;22.08;38.45;100870.72;5097805;27;45493;-83
2023/07/07 01:28:12;;;;;;;;;5.33;5.33;;;;;22.16;38.54;100885.38;5095515;27;45428;-82
2023/07/07 01:30:44;;;;;;;;;5.33;5.33;;;;;22.15;38.67;100884.53;5097470;27;45607;-81
2023/07/07 01:33:15;;;;;;;;;4.67;4.33;;;;;22.12;38.72;100879.41;5086144;27;47215;-81
2023/07/07 01:35:41;;;;;;;;;10.67;8.00;;;;;22.13;38.77;100880.25;5076886;28;45440;-80
2023/07/07 01:38:26;;;;;;;;;5.00;5.00;;;;;22.09;38.78;100879.72;5087763;27;45406;-81
2023/07/07 01:41:03;;;;;;;;;5.33;5.33;;;;;22.10;39.08;100880.56;5118407;27;45487;-81
2023/07/07 01:44:03;;;;;;;;;7.33;6.00;;;;;22.09;39.41;100882.41;5105700;27;45498;-85
2023/07/07 01:46:30;;;;;;;;;6.33;6.00;;;;;22.04;39.26;100882.00;5097870;27;46056;-83
2023/07/07 01:49:28;;;;;;;;;6.67;6.67;;;;;22.00;39.52;100884.13;5098101;27;45291;-86
2023/07/07 01:52:02;;;;;;;;;8.00;8.00;;;;;22.02;39.57;100884.88;5097852;27;45301;-83
2023/07/07 01:54:31;;;;;;;;;7.00;6.00;;;;;22.00;39.46;100883.28;5077913;27;45337;-85
2023/07/07 01:57:00;;;;;;;;;6.00;6.00;;;;;21.93;39.49;100865.97;5076955;27;45362;-83
2023/07/07 01:59:26;;;;;;;;;5.00;5.00;;;;;21.82;39.36;100858.06;5093698;27;45315;-81
2023/07/07 02:01:51;;;;;;;;;6.00;6.00;;;;;21.90;39.74;100879.81;5098458;27;45503;-79
2023/07/07 02:04:17;;;;;;;;;12.67;8.00;;;;;21.72;40.79;100855.41;5097926;27;45604;-80
2023/07/07 02:06:42;;;;;;;;;8.67;8.00;;;;;21.75;40.83;100883.03;5099747;27;45341;-84
2023/07/07 02:09:07;;;;;;;;;8.33;8.33;;;;;21.38;41.54;100820.00;5082400;27;45286;-81
2023/07/07 02:11:33;;;;;;;;;6.00;6.00;;;;;21.60;40.52;100864.72;5085414;27;45510;-80
2023/07/07 02:13:58;;;;;;;;;6.33;6.33;;;;;21.70;39.94;100879.06;5101644;27;45481;-81
2023/07/07 02:16:24;;;;;;;;;7.00;6.67;;;;;21.21;39.93;100806.22;5106096;27;45397;-81
2023/07/07 02:18:49;;;;;;;;;5.00;5.00;;;;;21.56;39.66;100857.91;5103113;27;45405;-80
2023/07/07 02:21:16;;;;;;;;;5.33;5.00;;;;;21.59;39.44;100872.00;5104215;27;45391;-82
2023/07/07 02:23:42;;;;;;;;;6.00;6.00;;;;;21.56;39.75;100877.72;5100708;27;46802;-80
2023/07/07 02:26:07;;;;;;;;;5.00;5.00;;;;;21.56;39.72;100872.31;5079889;27;45275;-80
2023/07/07 02:28:33;;;;;;;;;8.00;7.00;;;;;21.40;40.08;100848.59;5103915;27;45245;-79
2023/07/07 02:30:58;;;;;;;;;7.00;4.00;;;;;21.50;39.53;100872.91;5119385;27;45457;-82
2023/07/07 02:33:30;;;;;;;;;6.33;6.33;;;;;21.29;39.44;100832.56;5117122;27;45279;-79
2023/07/07 02:36:01;;;;;;;;;5.33;4.67;;;;;21.54;39.47;100868.91;5119323;27;45378;-80
2023/07/07 02:38:27;;;;;;;;;6.00;4.00;;;;;21.17;39.67;100814.78;5112063;27;45439;-82
2023/07/07 02:40:53;;;;;;;;;5.00;5.00;;;;;21.49;39.75;100865.81;5100084;27;45546;-81
2023/07/07 02:43:18;;;;;;;;;7.00;5.67;;;;;21.43;39.64;100861.81;5099055;27;45447;-81
2023/07/07 02:45:44;;;;;;;;;6.33;4.67;;;;;21.46;39.75;100866.06;5099434;27;45424;-80
2023/07/07 02:48:09;;;;;;;;;5.00;5.00;;;;;21.45;40.22;100861.66;5094824;27;45524;-79
2023/07/07 02:50:34;;;;;;;;;6.33;6.33;;;;;21.39;39.80;100856.88;5113226;27;45453;-80
2023/07/07 02:53:00;;;;;;;;;6.00;6.00;;;;;21.27;40.12;100844.53;5115525;27;46035;-82
2023/07/07 02:55:25;;;;;;;;;5.00;5.00;;;;;21.40;40.36;100866.69;5099574;27;46330;-80
2023/07/07 02:57:50;;;;;;;;;4.00;4.00;;;;;21.21;40.21;100840.53;5100869;27;45493;-81
2023/07/07 03:00:16;;;;;;;;;5.00;4.00;;;;;21.36;40.24;100870.69;5100360;27;45449;-81
2023/07/07 03:02:43;;;;;;;;;7.00;5.67;;;;;21.27;41.20;100860.75;5098701;27;46688;-82
2023/07/07 03:05:09;;;;;;;;;8.00;7.33;;;;;21.24;42.42;100866.44;5099365;27;45342;-85
2023/07/07 03:07:34;;;;;;;;;9.00;9.00;;;;;21.19;42.39;100859.59;5098587;27;45283;-81
2023/07/07 03:09:59;;;;;;;;;8.67;8.67;;;;;21.15;42.62;100871.72;5098997;27;45680;-84
2023/07/07 03:12:25;;;;;;;;;10.33;10.33;;;;;21.08;43.52;100862.47;5098680;27;46438;-82
2023/07/07 03:14:54;;;;;;;;;12.33;12.33;;;;;20.81;45.06;100835.38;5099578;27;45475;-80
2023/07/07 03:17:20;;;;;;;;;11.00;9.00;;;;;20.64;46.09;100837.00;5099308;27;45460;-82
2023/07/07 03:19:45;;;;;;;;;10.33;10.00;;;;;20.71;46.24;100864.31;5098113;27;45369;-81
2023/07/07 03:22:11;;;;;;;;;11.33;11.33;;;;;20.58;46.22;100846.53;5099066;27;45287;-80
2023/07/07 03:24:36;;;;;;;;;11.67;9.33;;;;;20.44;47.02;100836.16;5099421;27;45445;-83
2023/07/07 03:27:02;;;;;;;;;13.00;12.00;;;;;20.20;47.05;100800.63;5101321;27;45783;-84
2023/07/07 03:29:27;;;;;;;;;11.67;10.67;;;;;20.53;47.15;100858.75;5095345;27;45264;-81
2023/07/07 03:31:53;;;;;;;;;8.67;6.67;;;;;20.49;47.03;100860.91;5079374;28;46595;-79
2023/07/07 03:34:18;;;;;;;;;14.33;12.33;;;;;20.32;47.36;100832.75;5078588;28;45456;-84
2023/07/07 03:36:43;;;;;;;;;12.00;12.00;;;;;20.37;46.97;100843.09;5078639;27;45372;-82
2023/07/07 03:39:09;;;;;;;;;13.33;10.33;;;;;20.42;47.28;100848.09;5077648;27;46120;-79
2023/07/07 03:41:34;;;;;;;;;13.67;12.67;;;;;20.30;47.14;100839.25;5078342;28;46314;-80
2023/07/07 03:44:00;;;;;;;;;9.00;8.00;;;;;20.18;46.09;100824.19;5079036;27;45338;-82
2023/07/07 03:46:28;;;;;;;;;12.67;12.67;;;;;20.45;45.97;100858.66;5080140;27;45463;-84
2023/07/07 03:48:54;;;;;;;;;8.33;8.00;;;;;20.50;44.65;100868.00;5093220;27;45425;-80
2023/07/07 03:51:21;;;;;;;;;6.33;6.00;;;;;20.50;43.93;100859.91;5102058;27;46165;-81
2023/07/07 03:53:49;;;;;;;;;6.67;6.00;;;;;20.56;44.12;100870.13;5105448;27;45564;-80
2023/07/07 03:56:15;;;;;;;;;6.33;5.00;;;;;20.55;43.62;100863.03;5103066;27;45266;-81
2023/07/07 03:58:40;;;;;;;;;8.33;7.00;;;;;20.48;43.17;100853.81;5102529;27;45528;-80
2023/07/07 04:01:09;;;;;;;;;4.67;4.67;;;;;20.42;43.15;100832.75;5100702;27;46084;-81
2023/07/07 04:03:35;;;;;;;;;5.00;4.00;;;;;20.64;43.03;100865.88;5101934;27;44888;-80
2023/07/07 04:06:01;;;;;;;;;6.33;5.67;;;;;20.52;42.79;100854.34;5100844;27;45473;-79
2023/07/07 04:08:26;;;;;;;;;4.00;4.00;;;;;20.64;43.00;100869.41;5095962;27;45160;-80
2023/07/07 04:11:00;;;;;;;;;4.33;4.33;;;;;20.61;43.19;100870.56;5079834;27;45742;-80
2023/07/07 04:13:26;;;;;;;;;7.00;7.00;;;;;20.68;43.60;100870.81;5080778;27;45230;-81
2023/07/07 04:16:08;;;;;;;;;8.00;8.00;;;;;20.50;45.25;100851.81;5080652;27;45283;-79
2023/07/07 04:18:34;;;;;;;;;7.33;7.33;;;;;20.46;45.30;100855.78;5089723;27;45457;-80
2023/07/07 04:21:09;;;;;;;;;11.67;9.67;;;;;20.48;45.76;100859.19;5100177;27;45479;-79
2023/07/07 04:23:38;;;;;;;;;16.00;14.33;;;;;20.53;47.24;100867.72;5097971;27;45299;-80
2023/07/07 04:26:05;;;;;;;;;13.33;11.33;;;;;20.49;47.29;100870.84;5099913;27;45320;-80
2023/07/07 04:28:32;;;;;;;;;11.33;11.33;;;;;20.40;47.48;100872.53;5100161;27;45577;-79
2023/07/07 04:30:58;;;;;;;;;10.67;10.00;;;;;20.19;47.92;100842.13;5099466;27;45427;-80
2023/07/07 04:33:27;;;;;;;;;11.67;10.67;;;;;20.11;48.02;100818.53;5100285;27;45293;-79
2023/07/07 04:35:54;;;;;;;;;12.00;10.33;;;;;19.92;48.11;100792.38;5100523;27;45263;-80
2023/07/07 04:38:22;;;;;;;;;11.33;11.00;;;;;20.46;47.99;100877.41;5099285;27;45345;-80
2023/07/07 04:40:47;;;;;;;;;12.00;8.00;;;;;19.95;47.64;100792.09;5102399;27;46157;-82
2023/07/07 04:43:13;;;;;;;;;10.00;8.67;;;;;20.58;47.84;100895.19;5100276;27;45936;-83
2023/07/07 04:45:38;;;;;;;;;10.33;8.00;;;;;20.53;47.92;100881.22;5102233;27;45374;-81
2023/07/07 04:48:04;;;;;;;;;12.33;12.33;;;;;20.59;47.59;100875.28;5095877;27;45453;-84
2023/07/07 04:50:33;;;;;;;;;12.00;9.00;;;;;20.58;47.78;100876.25;5078711;27;45421;-82
2023/07/07 04:52:58;;;;;;;;;13.33;9.67;;;;;20.65;47.63;100878.38;5078146;27;45254;-81
2023/07/07 04:55:23;;;;;;;;;10.00;10.00;;;;;20.62;47.93;100876.81;5076475;28;45299;-83
2023/07/07 04:57:49;;;;;;;;;11.67;9.67;;;;;20.74;47.60;100882.94;5087988;27;45247;-84
2023/07/07 05:00:14;;;;;;;;;10.33;9.33;;;;;20.65;47.53;100856.75;5097659;27;45326;-81
2023/07/07 05:02:40;;;;;;;;;11.67;10.00;;;;;20.44;47.35;100825.34;5099780;27;45287;-81
2023/07/07 05:05:06;;;;;;;;;11.67;8.33;;;;;20.76;47.17;100854.75;5099572;27;45630;-85
2023/07/07 05:07:31;;;;;;;;;11.67;10.00;;;;;20.94;46.92;100873.75;5100931;27;45268;-81
2023/07/07 05:09:56;;;;;;;;;12.00;10.00;;;;;21.09;46.37;100874.16;5101842;27;45043;-85
2023/07/07 05:12:22;;;;;;;;;11.67;10.00;;;;;21.19;46.57;100880.38;5101634;27;45577;-80
2023/07/07 05:14:47;;;;;;;;;18.67;14.00;;;;;21.11;46.47;100867.63;5102184;27;45386;-81
2023/07/07 05:17:13;;;;;;;;;12.33;11.67;;;;;21.31;46.33;100889.22;5100549;27;45682;-81
2023/07/07 05:19:38;;;;;;;;;16.33;10.00;;;;;21.29;46.27;100880.41;5099568;27;46050;-82
2023/07/07 05:22:04;;;;;;;;;16.00;12.67;;;;;21.35;46.44;100885.19;5101108;27;45400;-81
2023/07/07 05:24:29;;;;;;;;;10.00;9.00;;;;;21.43;46.07;100891.59;5099870;27;45313;-79
2023/07/07 05:26:55;;;;;;;;;14.33;12.67;;;;;21.48;45.90;100893.84;5095443;27;45406;-79
2023/07/07 05:29:23;;;;;;;;;13.00;12.67;;;;;21.53;46.07;100891.56;5098087;27;45442;-83
2023/07/07 05:31:49;;;;;;;;;13.00;10.00;;;;;21.44;45.86;100879.75;5093371;27;45742;-82
2023/07/07 05:34:14;;;;;;;;;13.67;13.00;;;;;21.50;45.84;100875.63;5097770;27;45863;-81
2023/07/07 05:36:40;;;;;;;;;12.67;12.67;;;;;21.69;45.71;100894.47;5098534;27;45230;-81
2023/07/07 05:39:06;;;;;;;;;15.00;13.00;;;;;21.89;45.17;100899.78;5096063;27;46845;-82
2023/07/07 05:41:32;;;;;;;;;11.67;11.67;;;;;23.17;42.64;100882.16;5096017;27;45694;-83
2023/07/07 05:43:58;;;;;;;;;12.00;12.00;;;;;24.09;40.59;100878.69;5098802;27;45531;-83
2023/07/07 05:46:23;;;;;;;;;12.67;12.33;;;;;24.20;39.76;100857.63;5096189;27;45392;-80
2023/07/07 05:48:49;;;;;;;;;14.67;11.67;;;;;24.04;40.48;100900.03;5095377;27;45410;-79
2023/07/07 05:51:18;;;;;;;;;15.00;11.33;;;;;23.65;40.85;100879.88;5096903;27;45443;-83
2023/07/07 05:53:43;;;;;;;;;12.33;10.00;;;;;23.37;41.05;100885.50;5096820;27;45267;-83
2023/07/07 05:56:17;;;;;;;;;12.67;12.67;;;;;23.27;41.86;100895.59;5097468;27;45581;-81
2023/07/07 05:58:43;;;;;;;;;10.33;10.00;;;;;23.20;41.89;100897.28;5089758;27;48222;-83
2023/07/07 06:01:10;;;;;;;;;10.00;10.00;;;;;22.73;41.34;100829.81;5090241;27;45237;-82
2023/07/07 06:03:39;;;;;;;;;13.00;13.00;;;;;22.93;41.92;100874.72;5097088;27;45358;-80
2023/07/07 06:06:04;;;;;;;;;16.00;10.67;;;;;22.92;42.27;100886.59;5101743;27;45573;-83
2023/07/07 06:08:29;;;;;;;;;10.00;10.00;;;;;22.80;42.00;100857.16;5095325;27;48257;-81
2023/07/07 06:10:55;;;;;;;;;9.00;9.00;;;;;22.63;42.05;100815.47;5102440;27;45528;-82
2023/07/07 06:13:23;;;;;;;;;11.67;11.33;;;;;23.05;41.89;100878.03;5121678;27;45588;-84
2023/07/07 06:15:50;;;;;;;;;9.00;8.33;;;;;23.18;41.62;100893.88;5122169;27;45378;-83
2023/07/07 06:18:16;;;;;;;;;12.00;10.00;;;;;23.15;41.09;100872.47;5112020;27;45461;-81
2023/07/07 06:20:47;;;;;;;;;14.33;10.33;;;;;23.23;41.29;100888.81;5117711;27;45358;-83
2023/07/07 06:23:12;;;;;;;;;10.00;8.33;;;;;23.17;40.91;100870.44;5099945;27;45411;-86
2023/07/07 06:25:37;;;;;;;;;12.33;11.00;;;;;23.24;40.85;100876.94;5099243;27;47777;-85
2023/07/07 06:28:03;;;;;;;;;12.00;7.33;;;;;23.40;40.89;100893.31;5101348;27;45864;-85
2023/07/07 06:30:29;;;;;;;;;10.00;9.50;;;;;23.43;40.95;100894.84;5102298;27;45271;-85
2023/07/07 06:32:54;;;;;;;;;17.33;14.00;;;;;23.39;41.17;100875.31;5099303;27;45271;-83
2023/07/07 06:35:19;;;;;;;;;9.00;8.00;;;;;23.40;40.58;100844.44;5100481;27;45568;-87
2023/07/07 06:37:46;;;;;;;;;10.67;9.00;;;;;23.19;40.24;100800.63;5099157;27;47960;-84
2023/07/07 06:40:12;;;;;;;;;10.33;9.00;;;;;23.80;40.42;100900.81;5100243;27;45515;-83
2023/07/07 06:42:37;;;;;;;;;10.25;9.00;;;;;23.48;40.20;100814.63;5098917;27;45424;-87
2023/07/07 06:45:03;;;;;;;;;11.75;9.00;;;;;23.87;39.81;100830.41;5098655;27;45423;-86
2023/07/07 06:47:29;;;;;;;;;11.00;10.25;;;;;24.48;39.61;100890.81;5100111;27;46064;-85
2023/07/07 06:49:54;;;;;;;;;10.67;9.33;;;;;24.69;38.84;100864.81;5099928;27;45463;-86
2023/07/07 06:52:19;;;;;;;;;11.67;9.67;;;;;25.08;38.32;100895.91;5098151;27;45463;-84
2023/07/07 06:54:45;;;;;;;;;8.00;8.00;;;;;25.26;37.99;100902.00;5098817;27;45343;-82
2023/07/07 06:57:10;;;;;;;;;10.33;9.00;;;;;24.96;38.13;100888.06;5088144;27;45436;-82
2023/07/07 06:59:36;;;;;;;;;13.00;10.00;;;;;24.82;38.67;100879.75;5088353;27;45394;-83
2023/07/07 07:02:01;;;;;;;;;9.67;9.67;;;;;24.41;38.62;100823.53;5099687;27;45917;-82
2023/07/07 07:04:28;;;;;;;;;14.25;10.00;;;;;24.81;38.73;100894.38;5118499;27;45391;-83
2023/07/07 07:06:53;;;;;;;;;11.00;9.00;;;;;24.42;38.85;100846.13;5119046;27;45804;-86
2023/07/07 07:09:18;;;;;;;;;7.00;7.00;;;;;24.60;38.63;100868.53;5120700;27;45310;-85
2023/07/07 07:11:44;;;;;;;;;14.25;8.50;;;;;24.44;38.58;100835.06;5098443;27;45527;-82
2023/07/07 07:14:09;;;;;;;;;9.33;7.67;;;;;24.80;38.96;100898.97;5098160;27;45380;-83
2023/07/07 07:16:34;;;;;;;;;10.50;8.00;;;;;24.83;38.55;100897.78;5094566;27;47174;-85
2023/07/07 07:19:00;;;;;;;;;9.33;9.00;;;;;24.75;38.78;100884.19;5096896;27;45495;-86
2023/07/07 07:21:25;;;;;;;;;8.33;8.33;;;;;24.88;38.15;100896.25;5097564;27;45402;-84
2023/07/07 07:23:51;;;;;;;;;12.00;9.00;;;;;24.78;38.14;100881.97;5097649;27;45555;-84
2023/07/07 07:26:17;;;;;;;;;11.33;10.00;;;;;24.92;38.42;100902.19;5113107;27;48247;-82
2023/07/07 07:28:43;;;;;;;;;9.00;9.00;;;;;24.69;38.49;100867.53;5097907;27;45496;-84
2023/07/07 07:31:08;;;;;;;;;8.25;8.25;;;;;24.88;37.65;100904.44;5098054;27;45467;-82
2023/07/07 07:33:34;;;;;;;;;9.00;7.33;;;;;24.53;37.77;100878.41;5098674;27;45587;-82
2023/07/07 07:35:59;;;;;;;;;9.00;7.33;;;;;24.60;37.95;100903.91;5095729;27;48017;-83
2023/07/07 07:38:25;;;;;;;;;8.50;6.75;;;;;24.60;37.69;100900.31;5095625;27;45507;-83
2023/07/07 07:40:52;;;;;;;;;10.33;9.33;;;;;24.51;37.84;100882.31;5097658;27;45457;-84
2023/07/07 07:43:18;;;;;;;;;7.00;7.00;;;;;24.29;37.98;100835.72;5097881;27;45329;-85
2023/07/07 07:45:43;;;;;;;;;10.25;10.25;;;;;24.71;37.95;100905.44;5095879;27;47041;-86
2023/07/07 07:48:09;;;;;;;;;7.25;7.25;;;;;24.37;38.13;100841.19;5096374;27;45404;-83
2023/07/07 07:50:34;;;;;;;;;8.75;7.25;;;;;24.82;37.93;100905.09;5098024;27;45491;-84
2023/07/07 07:53:00;;;;;;;;;8.75;6.00;;;;;24.88;38.05;100889.97;5097562;27;45605;-83
2023/07/07 07:55:26;;;;;;;;;6.00;6.00;;;;;25.10;37.56;100897.44;5099036;27;46298;-82
2023/07/07 07:57:51;;;;;;;;;7.25;7.00;;;;;25.39;37.41;100913.22;5095328;27;45782;-82
2023/07/07 08:00:17;;;;;;;;;10.00;4.50;;;;;25.37;37.05;100908.94;5096490;27;45480;-84
2023/07/07 08:02:43;;;;;;;;;6.25;6.25;;;;;24.95;36.91;100890.97;5096976;27;45515;-82
2023/07/07 08:05:09;;;;;;;;;8.25;7.75;;;;;24.69;37.55;100916.47;5096401;27;46077;-81
2023/07/07 08:07:35;;;;;;;;;7.75;7.75;;;;;24.59;38.26;100921.22;5112126;27;45604;-83
2023/07/07 08:10:00;;;;;;;;;9.25;8.25;;;;;24.63;38.55;100913.59;5094885;27;45666;-81
2023/07/07 08:12:26;;;;;;;;;6.50;5.50;;;;;24.59;38.36;100914.94;5096628;27;46445;-82
2023/07/07 08:14:51;;;;;;;;;9.50;7.75;;;;;24.69;37.98;100915.63;5097201;27;45448;-83
2023/07/07 08:17:17;;;;;;;;;9.00;7.25;;;;;24.55;38.42;100911.72;5097321;27;45283;-84
2023/07/07 08:19:44;;;;;;;;;4.25;4.25;;;;;24.62;38.34;100901.88;5095874;27;45485;-84
2023/07/07 08:22:20;;;;;;;;;8.75;8.00;;;;;24.82;38.72;100909.69;5095752;27;45763;-82
2023/07/07 08:24:48;;;;;;;;;8.50;6.75;;;;;25.02;38.29;100911.06;5096089;27;46664;-83
2023/07/07 08:27:15;;;;;;;;;9.00;7.50;;;;;25.07;38.26;100911.41;5097268;27;45394;-83
2023/07/07 08:29:41;;;;;;;;;7.25;7.25;;;;;25.24;38.05;100917.66;5096534;27;45390;-84
2023/07/07 08:32:09;;;;;;;;;8.25;6.75;;;;;25.18;38.14;100916.47;5094137;27;45541;-84
2023/07/07 08:34:34;;;;;;;;;8.00;8.00;;;;;25.10;38.00;100889.28;5096475;27;46167;-84
2023/07/07 08:37:00;;;;;;;;;9.75;7.50;;;;;25.03;37.98;100882.00;5099960;27;45408;-83
2023/07/07 08:39:28;;;;;;;;;5.50;5.50;;;;;25.20;38.60;100889.09;5098494;27;45311;-82
2023/07/07 08:42:00;;;;;;;;;7.00;7.00;;;;;25.58;38.44;100917.41;5097289;27;44850;-87
2023/07/07 08:44:28;;;;;;;;;7.75;7.75;;;;;25.48;37.90;100860.41;5096385;27;45702;-84
2023/07/07 08:47:33;;;;;;;;;9.25;8.25;;;;;25.97;37.52;100919.31;5103692;27;45578;-84
2023/07/07 08:50:07;;;;;;;;;6.00;6.00;;;;;25.69;36.87;100873.47;5095881;27;45534;-84
2023/07/07 08:52:46;;;;;;;;;8.50;6.75;;;;;26.06;37.07;100907.34;5105529;27;44911;-84
2023/07/07 08:55:14;;;;;;;;;9.00;8.25;;;;;26.04;36.99;100909.38;5104567;27;46295;-83
2023/07/07 08:57:54;;;;;;;;;9.50;8.00;;;;;26.01;37.07;100912.47;5104120;27;45228;-83
2023/07/07 09:00:35;;;;;;;;;7.00;6.00;;;;;25.73;36.83;100858.47;5102755;27;45403;-83
2023/07/07 09:03:00;;;;;;;;;6.00;6.00;;;;;26.12;36.90;100912.91;5101979;27;45496;-83
2023/07/07 09:05:53;;;;;;;;;7.75;7.00;;;;;26.12;36.66;100922.97;5103316;27;45340;-82
2023/07/07 09:08:37;;;;;;;;;8.75;8.75;;;;;26.11;36.70;100913.94;5098868;27;45333;-83
2023/07/07 09:11:40;;;;;;;;;8.75;7.25;;;;;25.97;36.49;100867.53;5100588;27;45453;-86
2023/07/07 09:14:08;;;;;;;;;6.50;6.50;;;;;26.31;36.38;100872.59;5086185;27;45423;-82
2023/07/07 09:16:36;;;;;;;;;8.75;7.00;;;;;26.55;35.90;100877.03;5098098;27;45367;-81
2023/07/07 09:19:13;;;;;;;;;8.00;8.00;;;;;26.78;36.00;100877.84;5101381;27;45496;-81
2023/07/07 09:21:48;;;;;;;;;9.00;6.00;;;;;27.10;35.12;100895.00;5103950;27;45713;-81
2023/07/07 09:24:22;;;;;;;;;9.75;8.00;;;;;27.53;35.33;100917.91;5112126;27;45521;-84
2023/07/07 09:26:52;;;;;;;;;9.00;7.00;;;;;27.72;34.77;100911.03;5095263;27;46099;-81
2023/07/07 09:29:26;;;;;;;;;9.00;9.00;;;;;27.77;35.16;100903.13;5096355;27;45357;-79
2023/07/07 09:31:52;;;;;;;;;9.75;7.75;;;;;27.51;34.75;100862.63;5095205;27;45323;-83
2023/07/07 09:34:19;;;;;;;;;10.75;8.25;;;;;27.48;34.62;100866.56;5096130;27;45544;-82
2023/07/07 09:37:10;;;;;;;;;5.25;5.25;;;;;27.48;34.65;100899.34;5095961;27;46256;-84
2023/07/07 09:39:45;;;;;;;;;8.40;8.40;;;;;27.40;35.11;100901.31;5063565;27;45825;-83
2023/07/07 09:42:22;;;;;;;;;7.50;7.00;;;;;27.26;35.27;100898.41;5097454;27;45908;-82
2023/07/07 09:45:09;;;;;;;;;10.00;7.00;;;;;27.28;35.64;100892.75;5097631;27;45454;-84
2023/07/07 09:48:01;;;;;;;;;9.75;8.00;;;;;27.36;35.17;100891.81;5099762;27;46158;-84
2023/07/07 09:51:02;;;;;;;;;11.40;9.80;;;;;27.47;35.43;100892.16;5099459;27;45543;-83
2023/07/07 09:53:34;;;;;;;;;9.00;8.00;;;;;27.28;35.51;100849.06;5096116;27;45468;-89
2023/07/07 09:56:00;;;;;;;;;7.75;7.75;;;;;27.52;35.40;100891.63;5098210;27;45733;-86
2023/07/07 09:58:29;;;;;;;;;10.00;7.75;;;;;27.48;35.73;100893.88;5096519;27;46408;-88
2023/07/07 10:00:58;;;;;;;;;9.25;9.25;;;;;27.32;35.04;100883.13;5100482;27;45391;-81
2023/07/07 10:03:37;;;;;;;;;9.00;7.50;;;;;27.37;35.12;100896.25;5101604;27;45337;-82
2023/07/07 10:06:24;;;;;;;;;10.25;9.25;;;;;27.24;34.81;100875.06;5115088;27;45490;-84
2023/07/07 10:08:49;;;;;;;;;8.50;8.50;;;;;27.49;35.19;100884.66;5078771;27;45488;-85
2023/07/07 10:11:24;;;;;;;;;10.50;9.50;;;;;27.71;35.00;100871.09;5078595;27;57052;-82
2023/07/07 10:13:51;;;;;;;;;6.75;6.75;;;;;27.86;34.82;100897.34;5077427;28;45459;-82
2023/07/07 10:16:22;;;;;;;;;10.00;10.00;;;;;27.96;35.09;100897.06;5091146;27;45651;-87
2023/07/07 10:18:49;;;;;;;;;12.25;11.00;;;;;27.61;35.09;100825.78;5081751;27;45972;-82
2023/07/07 10:21:17;;;;;;;;;9.50;9.50;;;;;27.91;35.22;100873.03;5092908;27;45687;-84
2023/07/07 10:23:43;;;;;;;;;8.50;8.50;;;;;28.02;35.13;100870.84;5096794;27;45421;-83
2023/07/07 10:26:09;;;;;;;;;12.25;11.00;;;;;28.17;35.10;100882.56;5109498;27;45496;-83
2023/07/07 10:28:34;;;;;;;;;16.00;14.75;;;;;28.26;34.91;100866.88;5098818;27;45745;-84
2023/07/07 10:31:04;;;;;;;;;11.75;8.50;;;;;28.28;34.61;100884.00;5097622;27;45505;-83
2023/07/07 10:33:30;;;;;;;;;10.50;10.50;;;;;28.12;34.38;100857.69;5096961;27;45437;-86
2023/07/07 10:35:55;;;;;;;;;10.00;10.00;;;;;28.28;34.28;100867.59;5102164;27;45524;-87
2023/07/07 10:38:23;;;;;;;;;11.00;9.25;;;;;28.46;34.70;100876.16;5097354;27;45408;-86
2023/07/07 10:40:48;;;;;;;;;9.20;8.00;;;;;28.46;34.14;100876.16;5111378;27;45388;-85
2023/07/07 10:43:15;;;;;;;;;7.50;7.50;;;;;28.57;33.82;100878.38;5102173;27;45342;-82
2023/07/07 10:45:47;;;;;;;;;8.50;7.50;;;;;28.47;33.67;100817.66;5130547;27;45645;-83
2023/07/07 10:48:14;;;;;;;;;8.00;7.25;;;;;28.91;33.68;100874.94;5098265;27;46032;-86
2023/07/07 10:51:01;;;;;;;;;7.40;6.20;;;;;28.84;32.83;100875.88;5102172;27;45367;-82
2023/07/07 10:53:44;;;;;;;;;8.00;7.00;;;;;28.87;32.94;100872.72;5100140;27;45314;-84
2023/07/07 10:56:24;;;;;;;;;8.50;8.50;;;;;29.02;32.89;100866.13;5108737;27;45613;-82
2023/07/07 10:59:31;;;;;;;;;10.50;9.00;;;;;29.30;32.99;100870.78;5101118;27;45427;-81
2023/07/07 11:02:19;;;;;;;;;6.40;6.40;;;;;29.51;32.21;100867.94;5095409;27;45442;-82
2023/07/07 11:04:53;;;;;;;;;6.20;6.20;;;;;29.57;32.25;100837.00;5097836;27;45740;-83
2023/07/07 11:07:47;;;;;;;;;4.00;4.00;;;;;29.79;32.19;100864.28;5097155;27;45426;-81
2023/07/07 11:10:44;;;;;;;;;6.40;5.00;;;;;29.64;31.60;100845.25;5097325;27;45435;-82
2023/07/07 11:13:41;;;;;;;;;7.00;7.00;;;;;29.75;31.33;100846.56;5080094;27;45429;-83
2023/07/07 11:16:35;;;;;;;;;8.60;8.40;;;;;29.72;31.53;100841.50;5117743;27;45479;-81
2023/07/07 11:19:18;;;;;;;;;9.80;7.80;;;;;29.81;30.92;100838.34;5118096;27;45322;-85
2023/07/07 11:22:16;;;;;;;;;4.20;4.20;;;;;29.81;31.21;100838.34;5109300;27;45856;-83
2023/07/07 11:24:49;;;;;;;;;1.80;1.80;;;;;29.67;30.96;100831.13;5091082;27;45453;-81
2023/07/07 11:27:50;;;;;;;;;5.60;5.60;;;;;29.74;31.50;100837.50;5095880;27;45470;-80
2023/07/07 11:30:15;;;;;;;;;6.80;6.80;;;;;29.83;31.55;100833.53;5080792;27;45695;-84